sensor_id;sensor_type;location;lat;lon;timestamp;pressure;altitude;pressure_sealevel;temperature;humidity
56084;BME280;41958;52.416;13.428;2022-10-03T00:04:59;101203.53;;;10.84;100.00
56084;BME280;41958;52.416;13.428;2022-10-03T00:13:46;101213.84;;;10.92;100.00
56084;BME280;41958;52.416;13.428;2022-10-03T00:16:22;101198.97;;;10.79;100.00
56084;BME280;41958;52.416;13.428;2022-10-03T00:19:15;101215.25;;;10.77;100.00
56084;BME280;41958;52.416;13.428;2022-10-03T00:24:49;101217.84;;;10.82;100.00
56084;BME280;41958;52.416;13.428;2022-10-03T00:27:28;101224.41;;;10.86;100.00
56084;BME280;41958;52.416;13.428;2022-10-03T00:30:10;101230.59;;;10.92;100.00
56084;BME280;41958;52.416;13.428;2022-10-03T00:32:51;101226.53;;;10.89;100.00
56084;BME280;41958;52.416;13.428;2022-10-03T00:41:12;101234.31;;;11.05;100.00
56084;BME280;41958;52.416;13.428;2022-10-03T00:44:15;101235.47;;;11.04;100.00
56084;BME280;41958;52.416;13.428;2022-10-03T00:50:14;101245.66;;;11.08;100.00
56084;BME280;41958;52.416;13.428;2022-10-03T00:53:02;101245.72;;;11.21;100.00
56084;BME280;41958;52.416;13.428;2022-10-03T00:55:56;101243.25;;;11.19;100.00
56084;BME280;41958;52.416;13.428;2022-10-03T01:01:30;101240.56;;;11.23;100.00
56084;BME280;41958;52.416;13.428;2022-10-03T01:04:29;101240.56;;;11.23;100.00
56084;BME280;41958;52.416;13.428;2022-10-03T01:07:07;101248.50;;;11.21;100.00
56084;BME280;41958;52.416;13.428;2022-10-03T01:09:49;101242.38;;;11.27;100.00
56084;BME280;41958;52.416;13.428;2022-10-03T01:12:36;101249.66;;;11.20;100.00
56084;BME280;41958;52.416;13.428;2022-10-03T01:15:12;101253.41;;;11.24;100.00
56084;BME280;41958;52.416;13.428;2022-10-03T01:20:26;101232.88;;;11.20;100.00
56084;BME280;41958;52.416;13.428;2022-10-03T01:25:47;101259.34;;;11.22;100.00
56084;BME280;41958;52.416;13.428;2022-10-03T01:31:32;101254.16;;;11.12;100.00
56084;BME280;41958;52.416;13.428;2022-10-03T01:34:11;101240.25;;;11.03;100.00
56084;BME280;41958;52.416;13.428;2022-10-03T01:36:52;101260.78;;;11.07;100.00
56084;BME280;41958;52.416;13.428;2022-10-03T01:39:31;101254.31;;;11.16;100.00
56084;BME280;41958;52.416;13.428;2022-10-03T01:42:05;101267.25;;;11.20;100.00
56084;BME280;41958;52.416;13.428;2022-10-03T01:44:38;101265.41;;;11.24;100.00
56084;BME280;41958;52.416;13.428;2022-10-03T01:49:57;101260.50;;;11.21;100.00
56084;BME280;41958;52.416;13.428;2022-10-03T01:52:33;101267.53;;;11.27;100.00
56084;BME280;41958;52.416;13.428;2022-10-03T01:55:07;101272.66;;;11.25;100.00
56084;BME280;41958;52.416;13.428;2022-10-03T01:57:41;101275.84;;;11.36;100.00
56084;BME280;41958;52.416;13.428;2022-10-03T02:03:04;101266.72;;;11.27;100.00
56084;BME280;41958;52.416;13.428;2022-10-03T02:05:42;101275.59;;;11.29;100.00
56084;BME280;41958;52.416;13.428;2022-10-03T02:08:34;101277.63;;;11.20;100.00
56084;BME280;41958;52.416;13.428;2022-10-03T02:11:04;101281.25;;;11.20;100.00
56084;BME280;41958;52.416;13.428;2022-10-03T02:13:44;101286.09;;;11.32;100.00
56084;BME280;41958;52.416;13.428;2022-10-03T02:16:35;101288.09;;;11.32;100.00
56084;BME280;41958;52.416;13.428;2022-10-03T02:19:17;101293.13;;;11.38;100.00
56084;BME280;41958;52.416;13.428;2022-10-03T02:21:53;101292.09;;;11.43;100.00
56084;BME280;41958;52.416;13.428;2022-10-03T02:24:30;101292.91;;;11.43;100.00
56084;BME280;41958;52.416;13.428;2022-10-03T02:27:12;101298.31;;;11.48;100.00
56084;BME280;41958;52.416;13.428;2022-10-03T02:30:08;101292.84;;;11.52;100.00
56084;BME280;41958;52.416;13.428;2022-10-03T02:44:40;101301.66;;;11.63;100.00
56084;BME280;41958;52.416;13.428;2022-10-03T02:56:14;101299.75;;;11.55;100.00
56084;BME280;41958;52.416;13.428;2022-10-03T03:02:02;101313.59;;;11.72;100.00
56084;BME280;41958;52.416;13.428;2022-10-03T03:08:03;101305.59;;;11.62;100.00
56084;BME280;41958;52.416;13.428;2022-10-03T03:16:53;101310.03;;;11.63;99.45
56084;BME280;41958;52.416;13.428;2022-10-03T03:22:33;101309.50;;;11.70;100.00
56084;BME280;41958;52.416;13.428;2022-10-03T03:25:18;101315.50;;;11.59;99.86
56084;BME280;41958;52.416;13.428;2022-10-03T03:28:04;101313.75;;;11.55;100.00
56084;BME280;41958;52.416;13.428;2022-10-03T03:33:22;101316.00;;;11.61;100.00
56084;BME280;41958;52.416;13.428;2022-10-03T03:36:23;101326.91;;;11.54;100.00
56084;BME280;41958;52.416;13.428;2022-10-03T03:42:07;101327.72;;;11.55;100.00
56084;BME280;41958;52.416;13.428;2022-10-03T03:45:04;101328.47;;;11.64;100.00
56084;BME280;41958;52.416;13.428;2022-10-03T03:47:52;101327.72;;;11.55;100.00
56084;BME280;41958;52.416;13.428;2022-10-03T03:56:02;101340.28;;;11.70;99.96
56084;BME280;41958;52.416;13.428;2022-10-03T03:58:46;101339.69;;;11.64;100.00
56084;BME280;41958;52.416;13.428;2022-10-03T04:09:40;101339.94;;;11.71;100.00
56084;BME280;41958;52.416;13.428;2022-10-03T04:12:52;101343.78;;;11.67;100.00
56084;BME280;41958;52.416;13.428;2022-10-03T04:18:20;101351.41;;;11.78;100.00
56084;BME280;41958;52.416;13.428;2022-10-03T04:24:08;101356.25;;;11.69;100.00
56084;BME280;41958;52.416;13.428;2022-10-03T04:26:54;101359.06;;;11.69;100.00
56084;BME280;41958;52.416;13.428;2022-10-03T04:29:37;101359.75;;;11.66;100.00
56084;BME280;41958;52.416;13.428;2022-10-03T04:37:58;101367.78;;;11.68;99.98
56084;BME280;41958;52.416;13.428;2022-10-03T04:43:56;101363.22;;;11.63;100.00
56084;BME280;41958;52.416;13.428;2022-10-03T04:49:24;101359.06;;;11.69;100.00
56084;BME280;41958;52.416;13.428;2022-10-03T04:52:15;101361.59;;;11.62;100.00
56084;BME280;41958;52.416;13.428;2022-10-03T04:55:04;101356.13;;;11.66;99.59
56084;BME280;41958;52.416;13.428;2022-10-03T04:57:47;101360.22;;;11.68;99.24
56084;BME280;41958;52.416;13.428;2022-10-03T05:05:53;101360.09;;;11.64;98.53
56084;BME280;41958;52.416;13.428;2022-10-03T05:16:30;101373.63;;;11.62;99.21
56084;BME280;41958;52.416;13.428;2022-10-03T05:24:20;101388.50;;;11.75;98.65
56084;BME280;41958;52.416;13.428;2022-10-03T05:26:56;101384.25;;;11.69;98.73
56084;BME280;41958;52.416;13.428;2022-10-03T05:29:40;101366.22;;;11.58;98.22
56084;BME280;41958;52.416;13.428;2022-10-03T05:32:19;101385.09;;;11.70;98.76
56084;BME280;41958;52.416;13.428;2022-10-03T05:38:01;101403.25;;;11.63;98.32
56084;BME280;41958;52.416;13.428;2022-10-03T05:40:35;101386.59;;;11.67;98.16
56084;BME280;41958;52.416;13.428;2022-10-03T05:43:33;101395.94;;;11.71;98.06
56084;BME280;41958;52.416;13.428;2022-10-03T05:49:07;101403.44;;;11.79;98.31
56084;BME280;41958;52.416;13.428;2022-10-03T05:51:46;101404.53;;;11.87;97.28
56084;BME280;41958;52.416;13.428;2022-10-03T05:57:23;101405.63;;;11.74;97.25
56084;BME280;41958;52.416;13.428;2022-10-03T06:08:26;101417.25;;;11.85;96.60
56084;BME280;41958;52.416;13.428;2022-10-03T06:11:31;101422.72;;;11.81;97.01
56084;BME280;41958;52.416;13.428;2022-10-03T06:14:49;101421.91;;;11.80;96.99
56084;BME280;41958;52.416;13.428;2022-10-03T06:17:05;101428.31;;;11.81;96.80
56084;BME280;41958;52.416;13.428;2022-10-03T06:19:46;101424.25;;;12.00;96.06
56084;BME280;41958;52.416;13.428;2022-10-03T06:22:34;101424.75;;;11.93;96.41
56084;BME280;41958;52.416;13.428;2022-10-03T06:25:42;101448.16;;;11.97;96.67
56084;BME280;41958;52.416;13.428;2022-10-03T06:39:59;101465.16;;;12.13;95.24
56084;BME280;41958;52.416;13.428;2022-10-03T06:42:58;101462.63;;;12.20;95.33
56084;BME280;41958;52.416;13.428;2022-10-03T06:49:06;101464.38;;;12.25;95.43
56084;BME280;41958;52.416;13.428;2022-10-03T06:55:16;101465.56;;;12.24;94.45
56084;BME280;41958;52.416;13.428;2022-10-03T07:04:02;101469.53;;;12.23;95.00
56084;BME280;41958;52.416;13.428;2022-10-03T07:13:13;101486.00;;;12.58;92.28
56084;BME280;41958;52.416;13.428;2022-10-03T07:18:49;101471.06;;;12.32;92.38
56084;BME280;41958;52.416;13.428;2022-10-03T07:24:18;101490.38;;;12.68;91.05
56084;BME280;41958;52.416;13.428;2022-10-03T07:27:04;101489.47;;;12.88;90.66
56084;BME280;41958;52.416;13.428;2022-10-03T07:30:02;101498.38;;;12.90;91.05
56084;BME280;41958;52.416;13.428;2022-10-03T07:32:50;101494.91;;;12.72;90.75
56084;BME280;41958;52.416;13.428;2022-10-03T07:35:37;101506.53;;;12.83;90.99
56084;BME280;41958;52.416;13.428;2022-10-03T07:39:04;101502.88;;;12.70;90.53
56084;BME280;41958;52.416;13.428;2022-10-03T07:44:59;101504.22;;;12.85;89.50
56084;BME280;41958;52.416;13.428;2022-10-03T07:50:44;101514.09;;;13.28;87.29
56084;BME280;41958;52.416;13.428;2022-10-03T07:56:47;101525.91;;;13.34;86.28
56084;BME280;41958;52.416;13.428;2022-10-03T07:59:47;101533.38;;;13.18;87.53
56084;BME280;41958;52.416;13.428;2022-10-03T08:07:59;101540.75;;;13.22;87.24
56084;BME280;41958;52.416;13.428;2022-10-03T08:11:05;101546.47;;;13.13;87.78
56084;BME280;41958;52.416;13.428;2022-10-03T08:19:14;101547.69;;;13.37;86.50
56084;BME280;41958;52.416;13.428;2022-10-03T08:25:09;101550.63;;;13.41;86.26
56084;BME280;41958;52.416;13.428;2022-10-03T08:27:59;101556.47;;;13.48;85.59
56084;BME280;41958;52.416;13.428;2022-10-03T08:30:48;101554.97;;;13.51;85.12
56084;BME280;41958;52.416;13.428;2022-10-03T08:33:40;101560.56;;;13.38;85.42
56084;BME280;41958;52.416;13.428;2022-10-03T08:36:38;101565.97;;;13.68;83.40
56084;BME280;41958;52.416;13.428;2022-10-03T08:39:33;101570.06;;;13.83;83.27
56084;BME280;41958;52.416;13.428;2022-10-03T08:45:15;101567.84;;;13.76;81.07
56084;BME280;41958;52.416;13.428;2022-10-03T08:48:19;101559.91;;;13.78;81.75
56084;BME280;41958;52.416;13.428;2022-10-03T08:51:22;101570.44;;;13.69;80.88
56084;BME280;41958;52.416;13.428;2022-10-03T08:59:41;101574.50;;;14.09;79.71
56084;BME280;41958;52.416;13.428;2022-10-03T09:08:32;101563.66;;;14.76;77.96
56084;BME280;41958;52.416;13.428;2022-10-03T09:11:18;101573.16;;;14.72;78.56
56084;BME280;41958;52.416;13.428;2022-10-03T09:16:46;101561.22;;;14.34;78.70
56084;BME280;41958;52.416;13.428;2022-10-03T09:22:58;101566.59;;;14.39;78.57
56084;BME280;41958;52.416;13.428;2022-10-03T09:37:12;101573.19;;;14.59;75.62
56084;BME280;41958;52.416;13.428;2022-10-03T09:40:00;101578.34;;;14.70;74.88
56084;BME280;41958;52.416;13.428;2022-10-03T09:42:52;101570.50;;;14.91;75.02
56084;BME280;41958;52.416;13.428;2022-10-03T09:54:24;101574.44;;;15.03;74.87
56084;BME280;41958;52.416;13.428;2022-10-03T09:57:14;101569.09;;;15.13;75.12
56084;BME280;41958;52.416;13.428;2022-10-03T09:59:51;101580.22;;;15.54;72.69
56084;BME280;41958;52.416;13.428;2022-10-03T10:08:25;101588.66;;;15.38;72.38
56084;BME280;41958;52.416;13.428;2022-10-03T10:11:19;101592.44;;;15.14;74.61
56084;BME280;41958;52.416;13.428;2022-10-03T10:16:50;101580.50;;;14.89;73.96
56084;BME280;41958;52.416;13.428;2022-10-03T10:19:48;101584.84;;;14.86;74.03
56084;BME280;41958;52.416;13.428;2022-10-03T10:37:07;101569.19;;;15.49;72.10
56084;BME280;41958;52.416;13.428;2022-10-03T10:40:42;101562.56;;;15.89;72.35
56084;BME280;41958;52.416;13.428;2022-10-03T10:43:51;101559.88;;;16.12;71.24
56084;BME280;41958;52.416;13.428;2022-10-03T10:46:40;101556.81;;;16.01;71.24
56084;BME280;41958;52.416;13.428;2022-10-03T10:58:03;101552.91;;;16.06;68.05
56084;BME280;41958;52.416;13.428;2022-10-03T11:06:35;101566.22;;;16.25;67.68
56084;BME280;41958;52.416;13.428;2022-10-03T11:15:17;101567.03;;;16.26;70.54
56084;BME280;41958;52.416;13.428;2022-10-03T11:30:06;101573.41;;;16.23;70.77
56084;BME280;41958;52.416;13.428;2022-10-03T11:39:00;101571.94;;;16.29;71.43
56084;BME280;41958;52.416;13.428;2022-10-03T11:41:50;101585.53;;;16.07;73.05
56084;BME280;41958;52.416;13.428;2022-10-03T11:44:23;101590.16;;;16.15;73.11
56084;BME280;41958;52.416;13.428;2022-10-03T11:57:43;101582.66;;;16.04;76.17
56084;BME280;41958;52.416;13.428;2022-10-03T12:00:18;101583.94;;;15.74;76.43
56084;BME280;41958;52.416;13.428;2022-10-03T12:03:07;101569.19;;;16.13;76.99
56084;BME280;41958;52.416;13.428;2022-10-03T12:05:55;101570.28;;;15.92;76.72
56084;BME280;41958;52.416;13.428;2022-10-03T12:16:53;101561.03;;;15.92;79.00
56084;BME280;41958;52.416;13.428;2022-10-03T12:22:37;101565.91;;;15.79;82.57
56084;BME280;41958;52.416;13.428;2022-10-03T12:25:19;101560.94;;;15.40;86.25
56084;BME280;41958;52.416;13.428;2022-10-03T12:30:18;101551.22;;;15.54;86.99
56084;BME280;41958;52.416;13.428;2022-10-03T12:35:41;101554.13;;;15.89;84.94
56084;BME280;41958;52.416;13.428;2022-10-03T12:38:24;101553.31;;;16.24;84.12
56084;BME280;41958;52.416;13.428;2022-10-03T12:41:18;101550.66;;;16.51;79.71
56084;BME280;41958;52.416;13.428;2022-10-03T12:44:16;101554.78;;;16.57;77.77
56084;BME280;41958;52.416;13.428;2022-10-03T12:47:04;101547.88;;;16.55;76.88
56084;BME280;41958;52.416;13.428;2022-10-03T12:49:49;101557.25;;;16.39;76.46
56084;BME280;41958;52.416;13.428;2022-10-03T12:52:27;101564.97;;;16.42;75.94
56084;BME280;41958;52.416;13.428;2022-10-03T12:55:24;101553.63;;;16.03;75.79
56084;BME280;41958;52.416;13.428;2022-10-03T12:58:02;101560.25;;;16.11;76.74
56084;BME280;41958;52.416;13.428;2022-10-03T13:00:43;101545.69;;;16.09;75.45
56084;BME280;41958;52.416;13.428;2022-10-03T13:09:44;101546.94;;;16.47;74.31
56084;BME280;41958;52.416;13.428;2022-10-03T13:12:02;101552.41;;;16.40;73.44
56084;BME280;41958;52.416;13.428;2022-10-03T13:15:31;101540.75;;;16.22;72.66
56084;BME280;41958;52.416;13.428;2022-10-03T13:18:01;101543.16;;;16.39;72.37
56084;BME280;41958;52.416;13.428;2022-10-03T13:20:33;101545.34;;;16.30;73.38
56084;BME280;41958;52.416;13.428;2022-10-03T13:31:20;101536.34;;;16.83;69.79
56084;BME280;41958;52.416;13.428;2022-10-03T13:33:54;101549.03;;;16.89;71.61
56084;BME280;41958;52.416;13.428;2022-10-03T13:36:27;101542.84;;;16.64;69.01
56084;BME280;41958;52.416;13.428;2022-10-03T13:41:41;101536.81;;;16.65;68.58
56084;BME280;41958;52.416;13.428;2022-10-03T13:44:21;101550.50;;;16.63;67.81
56084;BME280;41958;52.416;13.428;2022-10-03T13:47:15;101548.28;;;16.73;69.27
56084;BME280;41958;52.416;13.428;2022-10-03T13:52:35;101550.97;;;16.89;69.82
56084;BME280;41958;52.416;13.428;2022-10-03T14:00:22;101552.41;;;16.40;69.68
56084;BME280;41958;52.416;13.428;2022-10-03T14:03:08;101549.81;;;16.50;70.19
56084;BME280;41958;52.416;13.428;2022-10-03T14:06:05;101559.41;;;16.65;70.87
56084;BME280;41958;52.416;13.428;2022-10-03T14:08:54;101562.88;;;16.59;69.89
56084;BME280;41958;52.416;13.428;2022-10-03T14:11:33;101564.75;;;16.51;69.94
56084;BME280;41958;52.416;13.428;2022-10-03T14:14:24;101560.75;;;16.72;69.84
56084;BME280;41958;52.416;13.428;2022-10-03T14:17:10;101574.56;;;16.57;71.94
56084;BME280;41958;52.416;13.428;2022-10-03T14:19:45;101565.47;;;16.28;72.75
56084;BME280;41958;52.416;13.428;2022-10-03T14:22:19;101570.34;;;16.12;72.55
56084;BME280;41958;52.416;13.428;2022-10-03T14:24:57;101562.59;;;16.09;73.44
56084;BME280;41958;52.416;13.428;2022-10-03T14:27:33;101558.00;;;16.00;74.35
56084;BME280;41958;52.416;13.428;2022-10-03T14:30:13;101552.34;;;16.00;74.42
56084;BME280;41958;52.416;13.428;2022-10-03T14:41:18;101522.59;;;16.03;74.31
56084;BME280;41958;52.416;13.428;2022-10-03T14:43:52;101548.22;;;16.14;73.96
56084;BME280;41958;52.416;13.428;2022-10-03T14:46:24;101539.72;;;16.30;72.90
56084;BME280;41958;52.416;13.428;2022-10-03T14:48:55;101545.72;;;16.28;71.74
56084;BME280;41958;52.416;13.428;2022-10-03T14:51:32;101543.56;;;16.22;70.57
56084;BME280;41958;52.416;13.428;2022-10-03T14:54:13;101539.78;;;16.14;70.04
56084;BME280;41958;52.416;13.428;2022-10-03T14:56:42;101544.88;;;16.08;69.99
56084;BME280;41958;52.416;13.428;2022-10-03T14:59:17;101540.50;;;16.11;70.85
56084;BME280;41958;52.416;13.428;2022-10-03T15:01:49;101544.06;;;16.08;70.36
56084;BME280;41958;52.416;13.428;2022-10-03T15:06:55;101536.28;;;16.21;70.70
56084;BME280;41958;52.416;13.428;2022-10-03T15:09:41;101540.38;;;16.23;70.38
56084;BME280;41958;52.416;13.428;2022-10-03T15:14:42;101527.81;;;16.01;70.65
56084;BME280;41958;52.416;13.428;2022-10-03T15:17:19;101529.81;;;16.00;70.86
56084;BME280;41958;52.416;13.428;2022-10-03T15:19:53;101536.56;;;15.96;71.21
56084;BME280;41958;52.416;13.428;2022-10-03T15:22:31;101528.56;;;15.98;71.15
56084;BME280;41958;52.416;13.428;2022-10-03T15:27:39;101532.09;;;15.95;72.60
56084;BME280;41958;52.416;13.428;2022-10-03T15:30:06;101538.75;;;15.87;71.99
56084;BME280;41958;52.416;13.428;2022-10-03T15:32:36;101537.44;;;16.00;71.13
56084;BME280;41958;52.416;13.428;2022-10-03T15:35:03;101545.75;;;15.77;71.83
56084;BME280;41958;52.416;13.428;2022-10-03T15:37:32;101542.41;;;15.71;72.28
56084;BME280;41958;52.416;13.428;2022-10-03T15:40:07;101534.91;;;15.79;72.29
56084;BME280;41958;52.416;13.428;2022-10-03T15:42:46;101539.03;;;15.81;72.33
56084;BME280;41958;52.416;13.428;2022-10-03T15:45:33;101533.56;;;15.73;73.32
56084;BME280;41958;52.416;13.428;2022-10-03T15:48:01;101538.56;;;15.63;72.91
56084;BME280;41958;52.416;13.428;2022-10-03T15:50:34;101534.31;;;15.70;72.67
56084;BME280;41958;52.416;13.428;2022-10-03T15:53:14;101544.84;;;15.57;73.28
56084;BME280;41958;52.416;13.428;2022-10-03T15:55:49;101540.28;;;15.68;72.75
56084;BME280;41958;52.416;13.428;2022-10-03T15:58:21;101544.31;;;15.67;73.47
56084;BME280;41958;52.416;13.428;2022-10-03T16:01:11;101548.41;;;15.54;74.35
56084;BME280;41958;52.416;13.428;2022-10-03T16:03:46;101543.78;;;15.45;74.32
56084;BME280;41958;52.416;13.428;2022-10-03T16:06:22;101555.47;;;15.47;74.18
56084;BME280;41958;52.416;13.428;2022-10-03T16:09:11;101549.56;;;15.37;75.45
56084;BME280;41958;52.416;13.428;2022-10-03T16:11:47;101550.75;;;15.20;75.86
56084;BME280;41958;52.416;13.428;2022-10-03T16:14:40;101545.22;;;15.23;76.27
56084;BME280;41958;52.416;13.428;2022-10-03T16:17:25;101549.84;;;15.15;76.30
56084;BME280;41958;52.416;13.428;2022-10-03T16:19:59;101551.22;;;15.22;76.56
56084;BME280;41958;52.416;13.428;2022-10-03T16:27:38;101540.13;;;15.13;77.40
56084;BME280;41958;52.416;13.428;2022-10-03T16:32:37;101550.75;;;15.20;77.50
56084;BME280;41958;52.416;13.428;2022-10-03T16:35:04;101560.56;;;15.26;77.38
56084;BME280;41958;52.416;13.428;2022-10-03T16:37:30;101557.94;;;15.17;78.59
56084;BME280;41958;52.416;13.428;2022-10-03T16:39:59;101543.75;;;15.13;79.68
56084;BME280;41958;52.416;13.428;2022-10-03T16:42:36;101550.13;;;15.10;81.29
56084;BME280;41958;52.416;13.428;2022-10-03T16:45:04;101548.44;;;14.93;81.54
56084;BME280;41958;52.416;13.428;2022-10-03T16:47:42;101545.28;;;14.95;82.31
56084;BME280;41958;52.416;13.428;2022-10-03T16:50:20;101537.38;;;14.84;83.17
56084;BME280;41958;52.416;13.428;2022-10-03T16:52:52;101549.34;;;14.81;83.59
56084;BME280;41958;52.416;13.428;2022-10-03T16:55:33;101550.97;;;14.82;83.20
56084;BME280;41958;52.416;13.428;2022-10-03T16:58:15;101549.97;;;14.75;83.50
56084;BME280;41958;52.416;13.428;2022-10-03T17:00:54;101550.75;;;14.75;83.69
56084;BME280;41958;52.416;13.428;2022-10-03T17:03:23;101553.13;;;14.73;83.37
56084;BME280;41958;52.416;13.428;2022-10-03T17:05:53;101544.47;;;14.66;83.58
56084;BME280;41958;52.416;13.428;2022-10-03T17:08:22;101541.53;;;14.62;83.95
56084;BME280;41958;52.416;13.428;2022-10-03T17:10:55;101542.25;;;14.59;83.73
56084;BME280;41958;52.416;13.428;2022-10-03T17:13:29;101543.81;;;14.44;84.19
56084;BME280;41958;52.416;13.428;2022-10-03T17:16:02;101549.09;;;14.46;83.19
56084;BME280;41958;52.416;13.428;2022-10-03T17:18:42;101537.16;;;14.49;83.88
56084;BME280;41958;52.416;13.428;2022-10-03T17:21:22;101547.25;;;14.38;85.05
56084;BME280;41958;52.416;13.428;2022-10-03T17:26:31;101546.47;;;14.25;85.57
56084;BME280;41958;52.416;13.428;2022-10-03T17:29:09;101544.22;;;14.30;85.86
56084;BME280;41958;52.416;13.428;2022-10-03T17:31:54;101543.66;;;14.25;86.32
56084;BME280;41958;52.416;13.428;2022-10-03T17:34:37;101540.00;;;14.24;86.27
56084;BME280;41958;52.416;13.428;2022-10-03T17:37:14;101547.78;;;14.15;86.88
56084;BME280;41958;52.416;13.428;2022-10-03T17:39:53;101557.03;;;14.15;87.27
56084;BME280;41958;52.416;13.428;2022-10-03T17:42:35;101553.28;;;14.11;87.33
56084;BME280;41958;52.416;13.428;2022-10-03T17:45:11;101553.06;;;14.16;87.21
56084;BME280;41958;52.416;13.428;2022-10-03T17:48:02;101553.41;;;14.15;87.77
56084;BME280;41958;52.416;13.428;2022-10-03T17:50:30;101542.19;;;14.03;88.07
56084;BME280;41958;52.416;13.428;2022-10-03T17:53:00;101547.13;;;13.93;89.12
56084;BME280;41958;52.416;13.428;2022-10-03T17:55:33;101550.03;;;13.85;90.49
56084;BME280;41958;52.416;13.428;2022-10-03T17:58:11;101550.03;;;13.85;91.00
56084;BME280;41958;52.416;13.428;2022-10-03T18:03:12;101548.31;;;13.80;92.53
56084;BME280;41958;52.416;13.428;2022-10-03T18:05:45;101549.94;;;13.93;92.46
56084;BME280;41958;52.416;13.428;2022-10-03T18:08:22;101555.56;;;13.93;92.35
56084;BME280;41958;52.416;13.428;2022-10-03T18:10:52;101550.38;;;13.95;93.04
56084;BME280;41958;52.416;13.428;2022-10-03T18:13:22;101565.38;;;13.87;94.84
56084;BME280;41958;52.416;13.428;2022-10-03T18:18:52;101573.59;;;13.80;95.61
56084;BME280;41958;52.416;13.428;2022-10-03T18:24:14;101558.03;;;13.82;95.76
56084;BME280;41958;52.416;13.428;2022-10-03T18:26:56;101566.53;;;13.86;96.03
56084;BME280;41958;52.416;13.428;2022-10-03T18:29:35;101558.97;;;13.74;96.22
56084;BME280;41958;52.416;13.428;2022-10-03T18:32:13;101549.81;;;13.77;96.72
56084;BME280;41958;52.416;13.428;2022-10-03T18:39:56;101541.63;;;13.72;96.59
56084;BME280;41958;52.416;13.428;2022-10-03T18:42:25;101538.00;;;13.72;97.24
56084;BME280;41958;52.416;13.428;2022-10-03T18:44:53;101540.56;;;13.64;97.13
56084;BME280;41958;52.416;13.428;2022-10-03T18:47:25;101543.72;;;13.63;97.53
56084;BME280;41958;52.416;13.428;2022-10-03T18:50:08;101541.41;;;13.65;97.56
56084;BME280;41958;52.416;13.428;2022-10-03T18:52:49;101549.13;;;13.56;98.20
56084;BME280;41958;52.416;13.428;2022-10-03T18:55:36;101560.00;;;13.45;99.39
56084;BME280;41958;52.416;13.428;2022-10-03T18:58:17;101560.22;;;13.40;99.83
56084;BME280;41958;52.416;13.428;2022-10-03T19:00:50;101560.75;;;13.33;100.00
56084;BME280;41958;52.416;13.428;2022-10-03T19:03:21;101562.19;;;13.27;100.00
56084;BME280;41958;52.416;13.428;2022-10-03T19:05:52;101568.47;;;13.24;100.00
56084;BME280;41958;52.416;13.428;2022-10-03T19:08:33;101561.69;;;13.25;100.00
56084;BME280;41958;52.416;13.428;2022-10-03T19:16:39;101565.78;;;13.27;100.00
56084;BME280;41958;52.416;13.428;2022-10-03T19:19:27;101562.56;;;13.38;100.00
56084;BME280;41958;52.416;13.428;2022-10-03T19:21:54;101563.75;;;13.37;100.00
56084;BME280;41958;52.416;13.428;2022-10-03T19:24:23;101563.22;;;13.35;100.00
56084;BME280;41958;52.416;13.428;2022-10-03T19:26:56;101554.16;;;13.38;100.00
56084;BME280;41958;52.416;13.428;2022-10-03T19:29:27;101560.41;;;13.35;100.00
56084;BME280;41958;52.416;13.428;2022-10-03T19:31:59;101572.00;;;13.33;100.00
56084;BME280;41958;52.416;13.428;2022-10-03T19:34:38;101566.28;;;13.29;100.00
56084;BME280;41958;52.416;13.428;2022-10-03T19:37:16;101565.78;;;13.27;100.00
56084;BME280;41958;52.416;13.428;2022-10-03T19:39:43;101560.41;;;13.22;100.00
56084;BME280;41958;52.416;13.428;2022-10-03T19:44:46;101559.34;;;13.14;100.00
56084;BME280;41958;52.416;13.428;2022-10-03T19:47:19;101556.88;;;13.13;100.00
56084;BME280;41958;52.416;13.428;2022-10-03T19:50:01;101561.06;;;13.07;100.00
56084;BME280;41958;52.416;13.428;2022-10-03T19:52:30;101556.97;;;13.04;100.00
56084;BME280;41958;52.416;13.428;2022-10-03T19:57:54;101561.63;;;13.00;100.00
56084;BME280;41958;52.416;13.428;2022-10-03T20:00:30;101567.13;;;12.96;100.00
56084;BME280;41958;52.416;13.428;2022-10-03T20:03:16;101567.00;;;12.93;100.00
56084;BME280;41958;52.416;13.428;2022-10-03T20:08:59;101569.47;;;12.94;100.00
56084;BME280;41958;52.416;13.428;2022-10-03T20:11:39;101556.25;;;12.95;100.00
56084;BME280;41958;52.416;13.428;2022-10-03T20:14:06;101564.91;;;13.02;100.00
56084;BME280;41958;52.416;13.428;2022-10-03T20:16:41;101569.28;;;13.12;100.00
56084;BME280;41958;52.416;13.428;2022-10-03T20:19:10;101568.44;;;13.11;100.00
56084;BME280;41958;52.416;13.428;2022-10-03T20:21:36;101561.81;;;13.16;100.00
56084;BME280;41958;52.416;13.428;2022-10-03T20:24:09;101556.19;;;13.16;100.00
56084;BME280;41958;52.416;13.428;2022-10-03T20:29:34;101563.09;;;13.19;100.00
56084;BME280;41958;52.416;13.428;2022-10-03T20:32:03;101558.44;;;13.23;100.00
56084;BME280;41958;52.416;13.428;2022-10-03T20:34:30;101557.59;;;13.22;100.00
56084;BME280;41958;52.416;13.428;2022-10-03T20:39:47;101550.34;;;13.21;100.00
56084;BME280;41958;52.416;13.428;2022-10-03T20:42:22;101555.63;;;13.23;100.00
56084;BME280;41958;52.416;13.428;2022-10-03T20:45:01;101557.59;;;13.22;100.00
56084;BME280;41958;52.416;13.428;2022-10-03T20:47:41;101560.03;;;13.24;100.00
56084;BME280;41958;52.416;13.428;2022-10-03T20:52:58;101565.66;;;13.24;100.00